Time;durP1;ratioP1;P1;durP2;ratioP2;P2;SDS_P1;SDS_P2;PMS_P1;PMS_P2;Temp;Humidity;BMP_temperature;BMP_pressure;BME280_temperature;BME280_humidity;BME280_pressure;Samples;Min_cycle;Max_cycle;Signal;HPM_P1;HPM_P2
2022/08/06 00:02:30;;;;;;;;;33.20;31.80;;;;;;;;5227688;28;8771;-78
2022/08/06 00:05:03;;;;;;;;;36.75;33.50;;;;;;;;5193549;28;8798;-77
2022/08/06 00:07:35;;;;;;;;;36.40;33.60;;;;;;;;5192718;28;8802;-78
2022/08/06 00:10:06;;;;;;;;;34.60;31.80;;;;;;;;5221377;28;8818;-76
2022/08/06 00:12:37;;;;;;;;;36.00;33.20;;;;;;;;5189234;28;8782;-77
2022/08/06 00:15:27;;;;;;;;;34.40;32.20;;;;;;;;5206966;28;8793;-76
2022/08/06 00:17:57;;;;;;;;;41.80;36.80;;;;;;;;5206579;28;8773;-77
2022/08/06 00:20:28;;;;;;;;;36.75;33.25;;;;;;;;5206993;28;8816;-79
2022/08/06 00:23:18;;;;;;;;;43.20;37.40;;;;;;;;5210196;28;10501;-78
2022/08/06 00:26:07;;;;;;;;;38.80;35.00;;;;;;;;5209529;28;8752;-79
2022/08/06 00:28:38;;;;;;;;;40.80;36.00;;;;;;;;5227220;28;8760;-80
2022/08/06 00:31:09;;;;;;;;;47.20;40.40;;;;;;;;5227229;28;8803;-79
2022/08/06 00:33:41;;;;;;;;;48.50;41.00;;;;;;;;5193029;28;8861;-79
2022/08/06 00:36:12;;;;;;;;;48.60;41.20;;;;;;;;5191380;28;11440;-79
2022/08/06 00:38:43;;;;;;;;;51.00;43.60;;;;;;;;5215863;28;8803;-79
2022/08/06 00:41:15;;;;;;;;;50.00;42.80;;;;;;;;5209760;28;8783;-79
2022/08/06 00:43:46;;;;;;;;;48.20;41.40;;;;;;;;5226790;28;9522;-79
2022/08/06 00:46:17;;;;;;;;;50.60;43.00;;;;;;;;5176429;28;8779;-79
2022/08/06 00:48:48;;;;;;;;;47.60;40.40;;;;;;;;5192453;28;9478;-79
2022/08/06 00:51:19;;;;;;;;;47.20;40.00;;;;;;;;5208787;28;9664;-79
2022/08/06 00:53:51;;;;;;;;;48.00;40.60;;;;;;;;5207150;28;8787;-78
2022/08/06 00:56:22;;;;;;;;;48.20;40.20;;;;;;;;5207117;28;8826;-79
2022/08/06 00:58:53;;;;;;;;;42.75;37.50;;;;;;;;5226527;28;8829;-79
2022/08/06 01:01:24;;;;;;;;;49.20;42.00;;;;;;;;5191812;28;10709;-78
2022/08/06 01:03:55;;;;;;;;;49.20;41.80;;;;;;;;5209078;28;8802;-79
2022/08/06 01:06:26;;;;;;;;;47.75;40.75;;;;;;;;5226485;28;9462;-79
2022/08/06 01:08:57;;;;;;;;;48.60;40.80;;;;;;;;5208823;28;9863;-79
2022/08/06 01:11:28;;;;;;;;;51.40;43.20;;;;;;;;5208376;28;9572;-78
2022/08/06 01:13:59;;;;;;;;;47.60;40.40;;;;;;;;5208249;28;8810;-75
2022/08/06 01:16:36;;;;;;;;;48.80;41.60;;;;;;;;5196728;28;8793;-75
2022/08/06 01:19:25;;;;;;;;;42.80;37.20;;;;;;;;5205762;28;8765;-75
2022/08/06 01:22:33;;;;;;;;;52.60;43.80;;;;;;;;5205670;28;8765;-76
2022/08/06 01:25:23;;;;;;;;;49.20;42.40;;;;;;;;5207272;28;8853;-77
2022/08/06 01:27:54;;;;;;;;;49.20;42.20;;;;;;;;5208473;28;8837;-79
2022/08/06 01:30:29;;;;;;;;;50.25;42.00;;;;;;;;5208426;28;8811;-78
2022/08/06 01:33:08;;;;;;;;;49.40;41.40;;;;;;;;5208318;28;9648;-78
2022/08/06 01:35:41;;;;;;;;;46.20;39.20;;;;;;;;5234254;28;8788;-78
2022/08/06 01:38:34;;;;;;;;;49.60;42.20;;;;;;;;5196689;28;8878;-78
2022/08/06 01:41:07;;;;;;;;;44.20;38.00;;;;;;;;5202903;28;8786;-77
2022/08/06 01:43:39;;;;;;;;;45.60;39.00;;;;;;;;5208755;28;8774;-78
2022/08/06 01:46:30;;;;;;;;;47.80;39.20;;;;;;;;5194317;28;9536;-77
2022/08/06 01:49:02;;;;;;;;;37.60;34.20;;;;;;;;5208005;28;8843;-78
2022/08/06 01:51:34;;;;;;;;;40.20;36.00;;;;;;;;5225454;28;9002;-75
2022/08/06 01:54:08;;;;;;;;;43.20;37.60;;;;;;;;5186875;28;8781;-75
2022/08/06 01:56:40;;;;;;;;;39.80;35.40;;;;;;;;5187472;28;8886;-75
2022/08/06 01:59:15;;;;;;;;;34.60;32.20;;;;;;;;5187554;28;8785;-75
2022/08/06 02:01:47;;;;;;;;;39.80;35.60;;;;;;;;5205040;28;8781;-75
2022/08/06 02:04:40;;;;;;;;;40.60;36.00;;;;;;;;5173598;28;8769;-76
2022/08/06 02:07:32;;;;;;;;;39.20;35.20;;;;;;;;5210442;28;8810;-75
2022/08/06 02:10:04;;;;;;;;;45.40;38.80;;;;;;;;5225428;28;8821;-75
2022/08/06 02:12:36;;;;;;;;;43.20;37.40;;;;;;;;5191202;28;8791;-75
2022/08/06 02:15:11;;;;;;;;;44.80;38.80;;;;;;;;5225162;28;8810;-76
2022/08/06 02:17:44;;;;;;;;;44.60;38.60;;;;;;;;5187161;28;8797;-75
2022/08/06 02:20:36;;;;;;;;;45.20;39.00;;;;;;;;5204843;28;8913;-75
2022/08/06 02:23:14;;;;;;;;;46.40;39.60;;;;;;;;5176514;28;8791;-75
2022/08/06 02:25:47;;;;;;;;;46.40;39.80;;;;;;;;5207843;28;8806;-75
2022/08/06 02:28:19;;;;;;;;;42.80;37.40;;;;;;;;5207522;28;8791;-75
2022/08/06 02:30:52;;;;;;;;;45.60;39.40;;;;;;;;5188530;28;8840;-75
2022/08/06 02:33:24;;;;;;;;;41.00;36.00;;;;;;;;5210968;28;8827;-78
2022/08/06 02:36:08;;;;;;;;;38.60;34.60;;;;;;;;5211564;28;8790;-81
2022/08/06 02:38:41;;;;;;;;;40.40;36.00;;;;;;;;5195121;28;8803;-81
2022/08/06 02:41:18;;;;;;;;;40.00;35.60;;;;;;;;5211561;28;8783;-78
2022/08/06 02:44:12;;;;;;;;;42.00;36.80;;;;;;;;5211528;28;8781;-78
2022/08/06 02:46:46;;;;;;;;;43.60;37.80;;;;;;;;5192517;28;8800;-79
2022/08/06 02:49:20;;;;;;;;;40.60;36.00;;;;;;;;5208565;28;8809;-81
2022/08/06 02:51:55;;;;;;;;;34.20;32.00;;;;;;;;5158147;28;8816;-80
2022/08/06 02:54:47;;;;;;;;;34.80;32.60;;;;;;;;5187347;28;8779;-79
2022/08/06 02:57:24;;;;;;;;;32.75;31.75;;;;;;;;5228967;28;9513;-79
2022/08/06 03:00:00;;;;;;;;;38.00;34.40;;;;;;;;5194688;28;8798;-79
2022/08/06 03:02:32;;;;;;;;;35.20;32.80;;;;;;;;5228946;28;8783;-75
2022/08/06 03:05:05;;;;;;;;;27.50;27.50;;;;;;;;5211082;28;8807;-76
2022/08/06 03:07:39;;;;;;;;;34.75;32.50;;;;;;;;5194295;28;8814;-75
2022/08/06 03:10:11;;;;;;;;;28.50;28.50;;;;;;;;5210998;28;8830;-75
2022/08/06 03:12:43;;;;;;;;;33.80;31.80;;;;;;;;5228679;28;8795;-75
2022/08/06 03:15:15;;;;;;;;;36.60;33.60;;;;;;;;5211120;28;8910;-75
2022/08/06 03:18:05;;;;;;;;;36.20;33.20;;;;;;;;5228981;28;8798;-75
2022/08/06 03:20:38;;;;;;;;;40.80;36.00;;;;;;;;5228885;28;8818;-76
2022/08/06 03:23:09;;;;;;;;;37.00;34.00;;;;;;;;5194605;28;8783;-76
2022/08/06 03:25:42;;;;;;;;;38.60;34.60;;;;;;;;5191142;28;8878;-75
2022/08/06 03:28:14;;;;;;;;;50.80;42.80;;;;;;;;5228124;28;8842;-75
2022/08/06 03:30:45;;;;;;;;;44.00;38.00;;;;;;;;5226695;28;8846;-76
2022/08/06 03:33:18;;;;;;;;;52.40;43.60;;;;;;;;5208117;28;8785;-76
2022/08/06 03:35:50;;;;;;;;;45.60;38.80;;;;;;;;5207710;28;8842;-76
2022/08/06 03:38:22;;;;;;;;;48.60;41.60;;;;;;;;5190702;28;8789;-80
2022/08/06 03:40:54;;;;;;;;;52.20;44.20;;;;;;;;5174196;28;8769;-80
2022/08/06 03:43:25;;;;;;;;;51.20;43.20;;;;;;;;5173250;28;8769;-81
2022/08/06 03:45:58;;;;;;;;;45.40;39.20;;;;;;;;5209169;28;8808;-80
2022/08/06 03:48:32;;;;;;;;;44.80;38.40;;;;;;;;5205992;28;8852;-78
2022/08/06 03:51:04;;;;;;;;;48.20;41.20;;;;;;;;5227505;28;8837;-78
2022/08/06 03:53:36;;;;;;;;;52.20;44.40;;;;;;;;5210581;28;8794;-78
2022/08/06 03:56:27;;;;;;;;;51.00;43.00;;;;;;;;5194410;28;8811;-77
2022/08/06 03:59:01;;;;;;;;;51.80;43.20;;;;;;;;5227816;28;8799;-75
2022/08/06 04:01:37;;;;;;;;;44.80;38.80;;;;;;;;5210590;28;8787;-78
2022/08/06 04:04:09;;;;;;;;;37.00;34.00;;;;;;;;5189076;28;8803;-74
2022/08/06 04:06:42;;;;;;;;;42.60;37.00;;;;;;;;5189729;28;8773;-76
2022/08/06 04:09:13;;;;;;;;;42.60;37.20;;;;;;;;5198265;28;8777;-79
2022/08/06 04:11:46;;;;;;;;;40.60;35.40;;;;;;;;5188001;28;8887;-78
2022/08/06 04:14:17;;;;;;;;;44.00;38.00;;;;;;;;5206534;28;8817;-81
2022/08/06 04:16:49;;;;;;;;;45.80;39.40;;;;;;;;5171378;28;8800;-76
2022/08/06 04:19:22;;;;;;;;;45.20;39.00;;;;;;;;5205592;28;8884;-76
2022/08/06 04:21:53;;;;;;;;;43.00;37.40;;;;;;;;5193142;28;8816;-78
2022/08/06 04:24:24;;;;;;;;;41.80;36.40;;;;;;;;5239152;28;8841;-79
2022/08/06 04:26:58;;;;;;;;;39.00;34.80;;;;;;;;5172959;28;9678;-73
2022/08/06 04:29:32;;;;;;;;;40.60;35.20;;;;;;;;5199271;28;8810;-79
2022/08/06 04:32:04;;;;;;;;;43.60;37.60;;;;;;;;5192879;28;8857;-80
2022/08/06 04:34:38;;;;;;;;;44.20;38.60;;;;;;;;5192841;28;8810;-79
2022/08/06 04:37:11;;;;;;;;;38.80;34.60;;;;;;;;5192852;28;8810;-81
2022/08/06 04:39:43;;;;;;;;;45.20;38.80;;;;;;;;5193093;28;8803;-82
2022/08/06 04:42:15;;;;;;;;;43.40;37.40;;;;;;;;5192723;28;8840;-77
2022/08/06 04:44:47;;;;;;;;;44.00;38.00;;;;;;;;5187202;28;8913;-77
2022/08/06 04:47:18;;;;;;;;;40.20;35.60;;;;;;;;5196371;28;9519;-76
2022/08/06 04:49:49;;;;;;;;;44.60;38.60;;;;;;;;5192683;28;9010;-75
2022/08/06 04:52:24;;;;;;;;;42.80;37.60;;;;;;;;5223041;28;8793;-76
2022/08/06 04:54:55;;;;;;;;;40.40;35.40;;;;;;;;5187301;28;8889;-76
2022/08/06 04:57:26;;;;;;;;;40.20;35.40;;;;;;;;5170342;28;8807;-76
2022/08/06 04:59:57;;;;;;;;;42.60;37.20;;;;;;;;5154158;28;8816;-76
2022/08/06 05:02:28;;;;;;;;;48.25;41.25;;;;;;;;5154071;28;8924;-75
2022/08/06 05:04:59;;;;;;;;;43.40;37.40;;;;;;;;5187199;28;9260;-76
2022/08/06 05:07:32;;;;;;;;;45.60;39.20;;;;;;;;5171718;28;8812;-76
2022/08/06 05:10:23;;;;;;;;;44.00;37.80;;;;;;;;5195452;28;8834;-74
2022/08/06 05:12:56;;;;;;;;;48.40;41.40;;;;;;;;5206174;28;8824;-77
2022/08/06 05:15:38;;;;;;;;;49.40;41.40;;;;;;;;5193888;28;8825;-78
2022/08/06 05:18:15;;;;;;;;;48.00;41.00;;;;;;;;5153677;28;8803;-80
2022/08/06 05:20:52;;;;;;;;;55.80;46.20;;;;;;;;5186338;28;8819;-79
2022/08/06 05:23:46;;;;;;;;;52.40;43.40;;;;;;;;5205831;28;8783;-78
2022/08/06 05:26:17;;;;;;;;;46.60;40.00;;;;;;;;5155397;28;8782;-76
2022/08/06 05:28:48;;;;;;;;;43.40;38.00;;;;;;;;5187035;28;8785;-78
2022/08/06 05:31:34;;;;;;;;;46.50;39.75;;;;;;;;5187596;28;8813;-77
2022/08/06 05:34:09;;;;;;;;;47.00;40.80;;;;;;;;5171355;28;11431;-78
2022/08/06 05:36:40;;;;;;;;;45.00;38.60;;;;;;;;5187625;28;8781;-78
2022/08/06 05:39:11;;;;;;;;;40.00;35.00;;;;;;;;5188190;28;8757;-77
2022/08/06 05:41:42;;;;;;;;;41.75;36.00;;;;;;;;5155456;28;8843;-77
2022/08/06 05:44:13;;;;;;;;;36.40;32.80;;;;;;;;5187456;28;11473;-76
2022/08/06 05:46:49;;;;;;;;;37.75;33.50;;;;;;;;5171344;28;8831;-76
2022/08/06 05:49:24;;;;;;;;;30.25;28.75;;;;;;;;5170877;28;11517;-76
2022/08/06 05:52:04;;;;;;;;;31.00;30.25;;;;;;;;5187336;28;8813;-77
2022/08/06 05:54:41;;;;;;;;;38.75;34.25;;;;;;;;5171080;28;8793;-77
2022/08/06 05:57:45;;;;;;;;;40.00;35.00;;;;;;;;5187491;28;8785;-77
2022/08/06 06:00:18;;;;;;;;;45.00;39.00;;;;;;;;5155166;28;8796;-77
2022/08/06 06:02:51;;;;;;;;;44.00;37.40;;;;;;;;5187690;28;8782;-77
2022/08/06 06:05:22;;;;;;;;;56.40;47.00;;;;;;;;5186573;28;8793;-76
2022/08/06 06:07:55;;;;;;;;;60.20;49.20;;;;;;;;5187187;28;8777;-76
2022/08/06 06:10:27;;;;;;;;;51.80;44.40;;;;;;;;5171019;28;8846;-78
2022/08/06 06:13:21;;;;;;;;;48.80;41.80;;;;;;;;5173880;28;8788;-78
2022/08/06 06:16:27;;;;;;;;;31.50;30.00;;;;;;;;5189949;28;8914;-78
2022/08/06 06:19:08;;;;;;;;;37.00;33.00;;;;;;;;5187161;28;8793;-78
2022/08/06 06:21:45;;;;;;;;;34.50;31.50;;;;;;;;5187181;28;8793;-78
2022/08/06 06:24:22;;;;;;;;;25.00;25.00;;;;;;;;5187817;28;8805;-77
2022/08/06 06:26:55;;;;;;;;;20.50;20.50;;;;;;;;5186874;28;8795;-78
2022/08/06 06:29:32;;;;;;;;;33.75;31.00;;;;;;;;5187216;28;8794;-77
2022/08/06 06:32:16;;;;;;;;;26.00;26.00;;;;;;;;5155065;28;8785;-77
2022/08/06 06:34:54;;;;;;;;;20.75;20.75;;;;;;;;5187098;28;8793;-78
2022/08/06 06:38:02;;;;;;;;;31.25;30.25;;;;;;;;5191483;28;8769;-77
2022/08/06 06:40:43;;;;;;;;;27.50;27.50;;;;;;;;5190546;28;8801;-79
2022/08/06 06:43:21;;;;;;;;;29.75;28.75;;;;;;;;5190588;28;8801;-80
2022/08/06 06:45:53;;;;;;;;;27.75;27.75;;;;;;;;5189602;28;9492;-79
2022/08/06 06:48:42;;;;;;;;;28.00;28.00;;;;;;;;5170683;28;8789;-79
2022/08/06 06:51:35;;;;;;;;;32.50;30.25;;;;;;;;5186704;28;11532;-79
2022/08/06 06:54:07;;;;;;;;;27.00;27.00;;;;;;;;5186420;28;8866;-79
2022/08/06 06:56:42;;;;;;;;;22.50;22.50;;;;;;;;5186854;28;8870;-77
2022/08/06 06:59:20;;;;;;;;;23.00;23.00;;;;;;;;5170739;28;8815;-79
2022/08/06 07:01:52;;;;;;;;;24.00;24.00;;;;;;;;5186710;28;9562;-78
2022/08/06 07:04:24;;;;;;;;;20.75;20.75;;;;;;;;5187126;28;8800;-79
2022/08/06 07:06:59;;;;;;;;;27.25;27.25;;;;;;;;5187144;28;8915;-78
2022/08/06 07:09:33;;;;;;;;;27.50;27.50;;;;;;;;5170263;28;8782;-79
2022/08/06 07:12:05;;;;;;;;;22.25;22.25;;;;;;;;5186744;28;8813;-79
2022/08/06 07:14:37;;;;;;;;;22.25;22.25;;;;;;;;5170306;28;8809;-79
2022/08/06 07:17:10;;;;;;;;;39.80;35.20;;;;;;;;5188726;28;8899;-78
2022/08/06 07:19:42;;;;;;;;;47.20;40.80;;;;;;;;5190590;28;8912;-78
2022/08/06 07:22:13;;;;;;;;;28.50;28.00;;;;;;;;5208165;28;8786;-78
2022/08/06 07:24:45;;;;;;;;;44.80;39.00;;;;;;;;5174116;28;8947;-78
2022/08/06 07:27:17;;;;;;;;;70.80;65.00;;;;;;;;5190469;28;8809;-78
2022/08/06 07:29:49;;;;;;;;;51.40;44.00;;;;;;;;5189794;28;8808;-78
2022/08/06 07:32:20;;;;;;;;;21.75;21.75;;;;;;;;5207747;28;8781;-80
2022/08/06 07:34:52;;;;;;;;;21.25;21.25;;;;;;;;5157693;28;8820;-79
2022/08/06 07:37:25;;;;;;;;;22.50;22.50;;;;;;;;5189963;28;8858;-79
2022/08/06 07:39:57;;;;;;;;;21.00;21.00;;;;;;;;5174114;28;8785;-80
2022/08/06 07:42:28;;;;;;;;;23.50;23.50;;;;;;;;5173476;28;8785;-81
2022/08/06 07:45:05;;;;;;;;;18.50;18.50;;;;;;;;5190044;28;8789;-79
2022/08/06 07:47:56;;;;;;;;;18.75;18.75;;;;;;;;5192289;28;8801;-77
2022/08/06 07:50:27;;;;;;;;;20.50;20.50;;;;;;;;5173354;28;8837;-79
2022/08/06 07:52:58;;;;;;;;;23.50;23.50;;;;;;;;5157331;28;8827;-79
2022/08/06 07:55:30;;;;;;;;;19.00;19.00;;;;;;;;5189564;28;8797;-79
2022/08/06 07:58:05;;;;;;;;;24.50;24.50;;;;;;;;5189692;28;8855;-79
2022/08/06 08:00:37;;;;;;;;;22.75;22.75;;;;;;;;5173411;28;8812;-80
2022/08/06 08:09:14;;;;;;;;;20.50;20.50;;;;;;;;5207079;28;8769;-79
2022/08/06 08:11:46;;;;;;;;;21.50;21.50;;;;;;;;5189245;28;8829;-78
2022/08/06 08:14:19;;;;;;;;;21.00;21.00;;;;;;;;5189320;28;8816;-80
2022/08/06 08:16:59;;;;;;;;;27.00;27.00;;;;;;;;5189247;28;8785;-78
2022/08/06 08:19:49;;;;;;;;;19.75;19.75;;;;;;;;5206775;28;8867;-78
2022/08/06 08:22:20;;;;;;;;;21.00;21.00;;;;;;;;5172811;28;8786;-79
2022/08/06 08:24:51;;;;;;;;;19.25;19.25;;;;;;;;5188999;28;10749;-79
2022/08/06 08:27:22;;;;;;;;;19.25;19.25;;;;;;;;5156098;28;8808;-79
2022/08/06 08:29:53;;;;;;;;;20.25;20.25;;;;;;;;5188507;28;8789;-79
2022/08/06 08:32:24;;;;;;;;;22.00;22.00;;;;;;;;5156576;28;8815;-78
2022/08/06 08:34:55;;;;;;;;;20.00;20.00;;;;;;;;5157154;28;8816;-78
2022/08/06 08:37:26;;;;;;;;;21.33;21.33;;;;;;;;5217203;28;9731;-78
2022/08/06 08:39:57;;;;;;;;;22.00;22.00;;;;;;;;5183377;28;9026;-77
2022/08/06 08:42:48;;;;;;;;;19.25;19.25;;;;;;;;5192204;28;8785;-78
2022/08/06 08:45:39;;;;;;;;;20.00;20.00;;;;;;;;5206523;28;8819;-78
2022/08/06 08:48:10;;;;;;;;;21.75;21.75;;;;;;;;5172204;28;8789;-78
2022/08/06 08:50:42;;;;;;;;;25.25;25.25;;;;;;;;5172188;28;8852;-78
2022/08/06 08:53:14;;;;;;;;;24.75;24.75;;;;;;;;5188803;28;8785;-78
2022/08/06 08:55:46;;;;;;;;;59.40;48.80;;;;;;;;5188536;28;8821;-78
2022/08/06 08:58:17;;;;;;;;;47.00;40.00;;;;;;;;5188395;28;8777;-78
2022/08/06 09:00:49;;;;;;;;;25.50;25.50;;;;;;;;5188373;28;8863;-78
2022/08/06 09:03:20;;;;;;;;;43.00;37.00;;;;;;;;5188314;28;8808;-79
2022/08/06 09:05:52;;;;;;;;;57.80;48.20;;;;;;;;5172202;28;8789;-78
2022/08/06 09:08:25;;;;;;;;;23.25;23.25;;;;;;;;5188616;28;9491;-79
2022/08/06 09:11:02;;;;;;;;;30.25;29.25;;;;;;;;5188395;28;8824;-78
2022/08/06 09:13:33;;;;;;;;;50.40;42.60;;;;;;;;5205936;28;8848;-78
2022/08/06 09:16:04;;;;;;;;;28.00;26.50;;;;;;;;5188356;28;8873;-79
2022/08/06 09:18:35;;;;;;;;;25.00;25.00;;;;;;;;5188099;28;8866;-79
2022/08/06 09:21:10;;;;;;;;;15.50;15.50;;;;;;;;5188119;28;8796;-78
2022/08/06 09:23:42;;;;;;;;;19.50;19.50;;;;;;;;5170125;28;8819;-80
2022/08/06 09:26:12;;;;;;;;;18.25;18.25;;;;;;;;5188366;28;8765;-80
2022/08/06 09:29:14;;;;;;;;;38.00;34.00;;;;;;;;5205990;28;8773;-78
2022/08/06 09:31:45;;;;;;;;;40.25;35.25;;;;;;;;5187887;28;8837;-78
2022/08/06 09:34:38;;;;;;;;;29.50;28.75;;;;;;;;5190823;28;8765;-78
2022/08/06 09:37:29;;;;;;;;;33.75;31.50;;;;;;;;5187918;28;8777;-78
2022/08/06 09:40:10;;;;;;;;;26.25;26.25;;;;;;;;5187499;28;8903;-78
2022/08/06 09:42:47;;;;;;;;;20.75;20.75;;;;;;;;5188640;28;8816;-78
2022/08/06 09:45:19;;;;;;;;;21.75;21.75;;;;;;;;5171940;28;8811;-78
2022/08/06 09:48:09;;;;;;;;;23.25;23.25;;;;;;;;5205721;28;8773;-79
2022/08/06 09:50:45;;;;;;;;;19.25;19.25;;;;;;;;5188005;28;8988;-79
2022/08/06 09:53:17;;;;;;;;;142.00;142.00;;;;;;;;5205523;28;8785;-80
2022/08/06 09:55:49;;;;;;;;;35.75;32.50;;;;;;;;5188138;28;10487;-77
2022/08/06 09:58:28;;;;;;;;;22.50;22.50;;;;;;;;5187932;28;8789;-79
2022/08/06 10:01:11;;;;;;;;;22.75;22.75;;;;;;;;5188532;28;8828;-79
2022/08/06 10:03:42;;;;;;;;;23.75;23.75;;;;;;;;5188979;28;8781;-80
2022/08/06 10:06:20;;;;;;;;;39.75;34.75;;;;;;;;5205117;28;8785;-79
2022/08/06 10:09:05;;;;;;;;;34.50;31.25;;;;;;;;5187828;28;8800;-80
2022/08/06 10:11:38;;;;;;;;;39.50;34.50;;;;;;;;5187412;28;8825;-79
2022/08/06 10:14:28;;;;;;;;;23.50;23.00;;;;;;;;5187216;28;8955;-79
2022/08/06 10:17:06;;;;;;;;;23.00;23.00;;;;;;;;5205603;28;8797;-79
2022/08/06 10:19:38;;;;;;;;;20.50;20.50;;;;;;;;5171398;28;8777;-79
2022/08/06 10:22:10;;;;;;;;;23.00;23.00;;;;;;;;5205046;28;8931;-79
2022/08/06 10:24:45;;;;;;;;;24.00;24.00;;;;;;;;5187104;28;9563;-79
2022/08/06 10:27:19;;;;;;;;;99.60;99.00;;;;;;;;5171481;28;8773;-79
2022/08/06 10:29:51;;;;;;;;;47.00;40.00;;;;;;;;5171149;28;9550;-79
2022/08/06 10:32:25;;;;;;;;;27.00;26.75;;;;;;;;5171496;28;8801;-79
2022/08/06 10:34:57;;;;;;;;;20.25;20.25;;;;;;;;5190532;28;8824;-80
2022/08/06 10:37:31;;;;;;;;;29.00;28.25;;;;;;;;5202333;28;8783;-79
2022/08/06 10:40:03;;;;;;;;;27.25;27.25;;;;;;;;5204089;28;8801;-81
2022/08/06 10:42:34;;;;;;;;;25.00;25.00;;;;;;;;5204405;28;8789;-79
2022/08/06 10:45:05;;;;;;;;;24.00;24.00;;;;;;;;5190671;28;8934;-78
2022/08/06 10:47:36;;;;;;;;;27.75;27.50;;;;;;;;5187811;28;9359;-78
2022/08/06 10:50:10;;;;;;;;;31.75;30.00;;;;;;;;5187414;28;8829;-78
2022/08/06 10:52:41;;;;;;;;;30.50;29.25;;;;;;;;5207778;28;8788;-79
2022/08/06 10:55:12;;;;;;;;;24.75;24.75;;;;;;;;5191011;28;8785;-78
2022/08/06 10:57:43;;;;;;;;;29.00;28.33;;;;;;;;5191047;28;8776;-79
2022/08/06 11:00:14;;;;;;;;;34.75;31.25;;;;;;;;5208932;28;8789;-78
2022/08/06 11:02:56;;;;;;;;;21.25;21.25;;;;;;;;5190776;28;8824;-78
2022/08/06 11:05:31;;;;;;;;;21.75;21.75;;;;;;;;5174766;28;9500;-78
2022/08/06 11:08:36;;;;;;;;;26.00;26.00;;;;;;;;5208666;28;8797;-78
2022/08/06 11:11:13;;;;;;;;;24.25;24.25;;;;;;;;5191119;28;8809;-78
2022/08/06 11:13:53;;;;;;;;;30.50;29.50;;;;;;;;5178167;28;8800;-78
2022/08/06 11:16:25;;;;;;;;;22.50;22.50;;;;;;;;5196384;28;8769;-78
2022/08/06 11:19:10;;;;;;;;;20.25;20.25;;;;;;;;5179166;28;8812;-77
2022/08/06 11:21:43;;;;;;;;;22.00;22.00;;;;;;;;5194408;28;8860;-78
2022/08/06 11:24:15;;;;;;;;;20.25;20.25;;;;;;;;5209487;28;8781;-78
2022/08/06 11:26:47;;;;;;;;;24.00;24.00;;;;;;;;5209255;28;8847;-78
2022/08/06 11:29:18;;;;;;;;;17.75;17.75;;;;;;;;5190862;28;8770;-79
2022/08/06 11:31:50;;;;;;;;;21.00;21.00;;;;;;;;5190318;28;8813;-78
2022/08/06 11:34:41;;;;;;;;;24.00;24.00;;;;;;;;5207768;28;8777;-78
2022/08/06 11:37:31;;;;;;;;;23.50;23.50;;;;;;;;5173698;28;8848;-79
2022/08/06 11:40:07;;;;;;;;;18.00;18.00;;;;;;;;5173610;28;8813;-79
2022/08/06 11:42:42;;;;;;;;;20.50;20.50;;;;;;;;5157220;28;8797;-79
2022/08/06 11:45:31;;;;;;;;;19.00;19.00;;;;;;;;5176203;28;8999;-79
2022/08/06 11:48:05;;;;;;;;;17.00;17.00;;;;;;;;5207502;28;8923;-79
2022/08/06 11:50:36;;;;;;;;;24.25;24.25;;;;;;;;5173500;28;8852;-79
2022/08/06 11:53:07;;;;;;;;;19.33;19.33;;;;;;;;5189626;28;8797;-79
2022/08/06 11:55:58;;;;;;;;;18.33;18.33;;;;;;;;5189622;28;11427;-77
2022/08/06 11:58:29;;;;;;;;;61.00;50.20;;;;;;;;5189292;28;10539;-80
2022/08/06 12:01:01;;;;;;;;;69.75;63.50;;;;;;;;5189822;28;8785;-78
2022/08/06 12:03:36;;;;;;;;;51.20;42.40;;;;;;;;5172061;28;11516;-79
2022/08/06 12:06:25;;;;;;;;;32.50;30.50;;;;;;;;5156890;28;8793;-78
2022/08/06 12:09:06;;;;;;;;;35.00;31.25;;;;;;;;5189334;28;8836;-78
2022/08/06 12:11:38;;;;;;;;;31.00;29.75;;;;;;;;5189547;28;9580;-78
2022/08/06 12:14:28;;;;;;;;;21.00;21.00;;;;;;;;5208677;28;8979;-78
2022/08/06 12:17:08;;;;;;;;;16.00;15.25;;;;;;;;5194059;28;8791;-78
2022/08/06 12:19:48;;;;;;;;;20.00;20.00;;;;;;;;5214071;28;9566;-79
2022/08/06 12:22:19;;;;;;;;;21.50;21.50;;;;;;;;5189172;28;8797;-78
2022/08/06 12:24:56;;;;;;;;;21.00;21.00;;;;;;;;5189247;28;8785;-78
2022/08/06 12:27:32;;;;;;;;;16.25;16.25;;;;;;;;5189791;28;8783;-79
2022/08/06 12:30:04;;;;;;;;;12.00;12.00;;;;;;;;5189115;28;8817;-79
2022/08/06 12:32:36;;;;;;;;;17.00;17.00;;;;;;;;5172677;28;8789;-78
2022/08/06 12:35:12;;;;;;;;;21.50;21.50;;;;;;;;5188905;28;8789;-78
2022/08/06 12:37:44;;;;;;;;;19.75;19.75;;;;;;;;5172438;28;8816;-78
2022/08/06 12:40:29;;;;;;;;;23.50;23.50;;;;;;;;5188927;28;8785;-79
2022/08/06 12:43:03;;;;;;;;;15.50;15.50;;;;;;;;5188758;28;8786;-78
2022/08/06 12:45:58;;;;;;;;;17.00;17.00;;;;;;;;5206345;28;9507;-78
2022/08/06 12:48:30;;;;;;;;;18.00;18.00;;;;;;;;5189008;28;8785;-78
2022/08/06 12:51:03;;;;;;;;;18.00;18.00;;;;;;;;5188326;28;8833;-78
2022/08/06 12:53:53;;;;;;;;;20.25;20.25;;;;;;;;5191181;28;9538;-79
2022/08/06 12:56:25;;;;;;;;;18.50;18.50;;;;;;;;5188346;28;8924;-79
2022/08/06 12:58:56;;;;;;;;;17.75;17.75;;;;;;;;5172290;28;9517;-79
2022/08/06 13:01:29;;;;;;;;;18.25;18.25;;;;;;;;5172170;28;8809;-79
2022/08/06 13:04:00;;;;;;;;;21.75;21.75;;;;;;;;5206158;28;8914;-79
2022/08/06 13:06:33;;;;;;;;;18.25;18.25;;;;;;;;5171808;28;8785;-79
2022/08/06 13:09:04;;;;;;;;;17.50;17.50;;;;;;;;5188493;28;8784;-79
2022/08/06 13:11:53;;;;;;;;;17.25;17.25;;;;;;;;5188339;28;8790;-79
2022/08/06 13:14:24;;;;;;;;;16.75;16.75;;;;;;;;5187568;28;8809;-79
2022/08/06 13:17:13;;;;;;;;;19.75;19.75;;;;;;;;5190631;28;8800;-79
2022/08/06 13:19:51;;;;;;;;;19.00;19.00;;;;;;;;5155598;28;8769;-79
2022/08/06 13:22:50;;;;;;;;;15.50;15.50;;;;;;;;5205921;28;8781;-79
2022/08/06 13:25:21;;;;;;;;;17.00;17.00;;;;;;;;5171752;28;8920;-79
2022/08/06 13:28:07;;;;;;;;;15.25;15.25;;;;;;;;5188612;28;8806;-79
2022/08/06 13:30:38;;;;;;;;;17.50;17.50;;;;;;;;5155489;28;9551;-79
2022/08/06 13:33:12;;;;;;;;;18.25;18.25;;;;;;;;5188058;28;8837;-79
2022/08/06 13:35:50;;;;;;;;;20.00;20.00;;;;;;;;5205320;28;9552;-79
2022/08/06 13:38:27;;;;;;;;;23.00;23.00;;;;;;;;5172015;28;8781;-79
2022/08/06 13:40:58;;;;;;;;;19.75;19.75;;;;;;;;5187886;28;8793;-79
2022/08/06 13:43:48;;;;;;;;;20.25;20.25;;;;;;;;5190429;28;9542;-80
2022/08/06 13:46:20;;;;;;;;;16.00;16.00;;;;;;;;5205186;28;8812;-79
2022/08/06 13:48:52;;;;;;;;;18.75;18.75;;;;;;;;5171021;28;8782;-79
2022/08/06 13:51:23;;;;;;;;;16.50;16.50;;;;;;;;5204848;28;8825;-79
2022/08/06 13:53:55;;;;;;;;;17.75;17.75;;;;;;;;5187884;28;9005;-79
2022/08/06 13:56:26;;;;;;;;;19.75;19.75;;;;;;;;5205074;28;9544;-79
2022/08/06 13:58:58;;;;;;;;;19.33;19.33;;;;;;;;5171294;28;8882;-79
2022/08/06 14:01:29;;;;;;;;;17.75;17.75;;;;;;;;5187239;28;11426;-79
2022/08/06 14:04:00;;;;;;;;;16.75;16.75;;;;;;;;5187455;28;9524;-79
2022/08/06 14:06:31;;;;;;;;;21.75;21.75;;;;;;;;5155078;28;8781;-79
2022/08/06 14:09:02;;;;;;;;;20.33;20.33;;;;;;;;5154812;28;8785;-80
2022/08/06 14:11:33;;;;;;;;;18.50;18.50;;;;;;;;5170823;28;9121;-80
2022/08/06 14:14:04;;;;;;;;;17.25;17.25;;;;;;;;5187382;28;8817;-80
2022/08/06 14:16:35;;;;;;;;;16.75;16.75;;;;;;;;5171342;28;8792;-80
2022/08/06 14:19:06;;;;;;;;;19.00;19.00;;;;;;;;5187036;28;8817;-80
2022/08/06 14:21:37;;;;;;;;;27.50;27.25;;;;;;;;5154590;28;8773;-80
2022/08/06 14:24:08;;;;;;;;;20.00;20.00;;;;;;;;5187237;28;8773;-79
2022/08/06 14:26:39;;;;;;;;;17.75;17.75;;;;;;;;5188759;28;8875;-80
2022/08/06 14:29:11;;;;;;;;;16.50;16.50;;;;;;;;5208831;28;8809;-79
2022/08/06 14:31:42;;;;;;;;;17.25;17.25;;;;;;;;5191110;28;8805;-80
2022/08/06 14:34:13;;;;;;;;;14.33;14.33;;;;;;;;5174862;28;8785;-80
2022/08/06 14:36:44;;;;;;;;;19.00;19.00;;;;;;;;5174826;28;11711;-80
2022/08/06 14:39:15;;;;;;;;;20.67;20.67;;;;;;;;5191185;28;8797;-80
2022/08/06 14:44:54;;;;;;;;;16.75;16.75;;;;;;;;5190872;28;9503;-79
2022/08/06 14:47:43;;;;;;;;;16.75;16.75;;;;;;;;5193927;28;8797;-79
2022/08/06 14:50:14;;;;;;;;;21.50;21.50;;;;;;;;5190904;28;8887;-79
2022/08/06 14:52:45;;;;;;;;;19.75;19.75;;;;;;;;5174598;28;8862;-79
2022/08/06 14:55:16;;;;;;;;;18.00;18.00;;;;;;;;5190797;28;8785;-78
2022/08/06 14:57:47;;;;;;;;;16.75;16.75;;;;;;;;5208462;28;8808;-78
2022/08/06 15:00:18;;;;;;;;;18.00;18.00;;;;;;;;5190809;28;8785;-78
2022/08/06 15:02:51;;;;;;;;;20.00;20.00;;;;;;;;5158270;28;8805;-79
2022/08/06 15:05:22;;;;;;;;;16.25;16.25;;;;;;;;5190549;28;11495;-78
2022/08/06 15:08:11;;;;;;;;;21.75;21.75;;;;;;;;5176765;28;8805;-78
2022/08/06 15:10:42;;;;;;;;;20.00;20.00;;;;;;;;5190534;28;8824;-78
2022/08/06 15:13:13;;;;;;;;;19.75;19.75;;;;;;;;5207575;28;11515;-78
2022/08/06 15:15:44;;;;;;;;;23.75;23.75;;;;;;;;5190354;28;8790;-78
2022/08/06 15:18:33;;;;;;;;;24.75;24.50;;;;;;;;5208129;28;8789;-78
2022/08/06 15:21:05;;;;;;;;;21.50;21.50;;;;;;;;5174442;28;9472;-78
2022/08/06 15:23:35;;;;;;;;;24.00;24.00;;;;;;;;5190257;28;8788;-78
2022/08/06 15:26:26;;;;;;;;;45.20;38.60;;;;;;;;5207978;28;8793;-78
2022/08/06 15:28:56;;;;;;;;;38.60;34.00;;;;;;;;5208218;28;8816;-78